Time;durP1;ratioP1;P1;durP2;ratioP2;P2;SDS_P1;SDS_P2;PMS_P1;PMS_P2;Temp;Humidity;BMP_temperature;BMP_pressure;BME280_temperature;BME280_humidity;BME280_pressure;Samples;Min_cycle;Max_cycle;Signal;HPM_P1;HPM_P2
2023/10/10 00:00:03;;;;;;;351.70;332.43;;;14.20;99.90;;;;;;5056537;28;20804;-76
2023/10/10 00:02:29;;;;;;;332.40;313.17;;;14.10;99.90;;;;;;5056539;28;20418;-76
2023/10/10 00:04:55;;;;;;;331.40;313.03;;;14.10;99.90;;;;;;5056266;28;20521;-76
2023/10/10 00:07:23;;;;;;;335.03;316.20;;;14.10;99.90;;;;;;5056246;28;20482;-76
2023/10/10 00:09:50;;;;;;;335.50;316.87;;;14.00;99.90;;;;;;5056022;28;20522;-76
2023/10/10 00:12:26;;;;;;;326.03;307.60;;;14.00;99.90;;;;;;5056323;28;20442;-76
2023/10/10 00:14:53;;;;;;;342.00;323.40;;;14.00;99.90;;;;;;5056147;28;20856;-76
2023/10/10 00:17:20;;;;;;;332.27;313.47;;;14.00;99.90;;;;;;5056243;28;20545;-76
2023/10/10 00:19:52;;;;;;;343.93;324.67;;;13.90;99.90;;;;;;5055832;28;20443;-76
2023/10/10 00:22:26;;;;;;;354.90;335.63;;;13.90;99.90;;;;;;5056333;28;20921;-76
2023/10/10 00:24:52;;;;;;;328.27;309.50;;;14.00;99.90;;;;;;5056195;28;20802;-76
2023/10/10 00:27:22;;;;;;;333.67;315.07;;;13.90;99.90;;;;;;5056120;28;20431;-76
2023/10/10 00:29:48;;;;;;;356.57;336.73;;;13.90;99.90;;;;;;5055786;28;20518;-76
2023/10/10 00:32:22;;;;;;;371.50;351.30;;;13.90;99.90;;;;;;5054540;28;20439;-76
2023/10/10 00:34:48;;;;;;;353.90;334.57;;;13.80;99.90;;;;;;5055784;28;20396;-76
2023/10/10 00:37:25;;;;;;;336.80;317.40;;;13.90;99.90;;;;;;5055650;28;20408;-76
2023/10/10 00:39:53;;;;;;;364.07;344.10;;;13.90;99.90;;;;;;5055628;28;20431;-76
2023/10/10 00:42:36;;;;;;;356.10;336.70;;;13.90;99.90;;;;;;5055477;28;21007;-76
2023/10/10 00:45:09;;;;;;;341.67;322.87;;;13.80;99.90;;;;;;5055919;28;20408;-76
2023/10/10 00:47:42;;;;;;;341.73;322.83;;;13.80;99.90;;;;;;5055489;28;20380;-76
2023/10/10 00:50:15;;;;;;;377.23;356.20;;;13.80;99.90;;;;;;5055779;28;20391;-76
2023/10/10 00:52:46;;;;;;;376.63;356.23;;;13.70;99.90;;;;;;5055364;28;20434;-76
2023/10/10 00:55:12;;;;;;;374.83;355.00;;;13.70;99.90;;;;;;5055423;28;20467;-76
2023/10/10 00:57:39;;;;;;;383.10;362.30;;;13.70;99.90;;;;;;5055284;28;20408;-76
2023/10/10 01:00:10;;;;;;;368.30;348.20;;;13.60;99.90;;;;;;5055207;28;20526;-76
2023/10/10 01:02:39;;;;;;;367.73;347.23;;;13.60;99.90;;;;;;5055455;28;20438;-76
2023/10/10 01:05:14;;;;;;;385.87;365.13;;;13.60;99.90;;;;;;5054469;28;20408;-76
2023/10/10 01:07:46;;;;;;;350.43;331.03;;;13.60;99.90;;;;;;5055437;28;20387;-76
2023/10/10 01:10:13;;;;;;;369.87;349.77;;;13.60;99.90;;;;;;5055064;28;20438;-76
2023/10/10 01:12:40;;;;;;;373.13;353.00;;;13.50;99.90;;;;;;5054951;28;20440;-76
2023/10/10 01:15:24;;;;;;;365.50;345.77;;;13.50;99.90;;;;;;5054967;28;20439;-76
2023/10/10 01:17:50;;;;;;;365.47;345.77;;;13.50;99.90;;;;;;5055294;28;20823;-76
2023/10/10 01:20:19;;;;;;;380.47;360.27;;;13.50;99.90;;;;;;5054805;28;20447;-76
2023/10/10 01:22:48;;;;;;;391.70;370.70;;;13.50;99.90;;;;;;5053753;28;20454;-76
2023/10/10 01:25:30;;;;;;;375.83;355.63;;;13.40;99.90;;;;;;5054742;28;20488;-76
2023/10/10 01:27:57;;;;;;;366.43;346.70;;;13.40;99.90;;;;;;5054977;28;20735;-76
2023/10/10 01:30:43;;;;;;;379.00;358.83;;;13.40;99.90;;;;;;5054677;28;20502;-76
2023/10/10 01:33:14;;;;;;;370.60;350.50;;;13.40;99.90;;;;;;5054698;28;20428;-76
2023/10/10 01:35:42;;;;;;;392.60;371.60;;;13.40;99.90;;;;;;5054823;28;20403;-76
2023/10/10 01:38:41;;;;;;;379.00;358.50;;;13.40;99.90;;;;;;5054554;28;20432;-76
2023/10/10 01:41:15;;;;;;;378.83;357.33;;;13.40;99.90;;;;;;5054462;28;20423;-76
2023/10/10 01:43:46;;;;;;;398.03;376.60;;;13.30;99.90;;;;;;5054411;28;20495;-76
2023/10/10 01:46:20;;;;;;;395.53;374.37;;;13.30;99.90;;;;;;5054582;28;20381;-76
2023/10/10 01:48:45;;;;;;;382.50;361.47;;;13.30;99.90;;;;;;5054385;28;20380;-76
2023/10/10 01:51:15;;;;;;;397.43;375.80;;;13.30;99.90;;;;;;5054580;28;20757;-76
2023/10/10 01:53:41;;;;;;;392.57;371.27;;;13.30;99.90;;;;;;5054373;28;20498;-76
2023/10/10 01:56:08;;;;;;;387.40;365.90;;;13.20;99.90;;;;;;5054183;28;20400;-76
2023/10/10 01:58:36;;;;;;;383.67;362.87;;;13.20;99.90;;;;;;5053984;28;20506;-76
2023/10/10 02:01:16;;;;;;;385.77;365.13;;;13.20;99.90;;;;;;5054134;28;20921;-76
2023/10/10 02:03:43;;;;;;;397.83;376.43;;;13.20;99.90;;;;;;5053961;28;20827;-76
2023/10/10 02:06:14;;;;;;;395.10;373.87;;;13.20;99.90;;;;;;5053980;28;20427;-76
2023/10/10 02:08:44;;;;;;;388.50;367.10;;;13.20;99.90;;;;;;5053865;28;20380;-76
2023/10/10 02:11:12;;;;;;;399.47;377.57;;;13.20;99.90;;;;;;5053924;28;20395;-76
2023/10/10 02:13:39;;;;;;;402.70;381.20;;;13.20;99.90;;;;;;5053699;28;20423;-76
2023/10/10 02:16:06;;;;;;;403.70;382.07;;;13.10;99.90;;;;;;5053084;28;20461;-77
2023/10/10 02:18:39;;;;;;;397.20;376.00;;;13.10;99.90;;;;;;5053648;28;20972;-76
2023/10/10 02:21:08;;;;;;;399.13;377.43;;;13.10;99.90;;;;;;5053959;28;20392;-76
2023/10/10 02:23:36;;;;;;;397.70;376.20;;;13.10;99.90;;;;;;5035731;28;20443;-76
2023/10/10 02:26:07;;;;;;;390.27;369.37;;;13.10;99.90;;;;;;5053659;28;20403;-76
2023/10/10 02:28:48;;;;;;;383.37;362.53;;;13.10;99.90;;;;;;5053621;28;20373;-76
2023/10/10 02:31:15;;;;;;;403.00;381.43;;;13.10;99.90;;;;;;5052329;28;20407;-76
2023/10/10 02:34:03;;;;;;;402.43;380.63;;;13.10;99.90;;;;;;5053637;28;20420;-79
2023/10/10 02:36:30;;;;;;;425.87;402.43;;;13.10;99.90;;;;;;5053768;28;20861;-76
2023/10/10 02:39:27;;;;;;;414.33;391.77;;;13.00;99.90;;;;;;5053315;28;20443;-76
2023/10/10 02:41:49;;;;;;;426.13;403.57;;;13.00;99.90;;;;;;5052850;28;20928;-76
2023/10/10 02:45:00;;;;;;;399.97;377.90;;;13.00;99.90;;;;;;5053655;28;20423;-76
2023/10/10 02:47:02;;;;;;;403.50;380.93;;;13.00;99.90;;;;;;5046034;28;20419;-76
2023/10/10 02:51:57;;;;;;;410.20;387.73;;;13.10;99.90;;;;;;5053434;28;20434;-76
2023/10/10 02:56:57;;;;;;;397.73;376.70;;;13.00;99.90;;;;;;5053166;28;20416;-77
2023/10/10 02:59:39;;;;;;;367.87;347.57;;;13.00;99.90;;;;;;5053018;28;20809;-76
2023/10/10 03:02:18;;;;;;;382.00;361.00;;;13.00;99.90;;;;;;5053025;28;20639;-76
2023/10/10 03:07:28;;;;;;;393.20;372.38;;;13.00;99.90;;;;;;5053333;28;20391;-76
2023/10/10 03:12:41;;;;;;;378.93;358.43;;;12.90;99.90;;;;;;5053440;28;20428;-76
2023/10/10 03:17:49;;;;;;;398.97;377.60;;;13.00;99.90;;;;;;5053379;28;20392;-76
2023/10/10 03:23:23;;;;;;;395.30;374.30;;;13.20;99.90;;;;;;5053387;28;20427;-76
2023/10/10 03:29:09;;;;;;;366.70;346.30;;;13.30;99.90;;;;;;5056680;28;20776;-79
2023/10/10 05:25:12;;;;;;;383.07;361.70;;;13.10;99.90;;;;;;5055294;28;20429;-76
2023/10/10 05:27:42;;;;;;;391.63;370.50;;;13.10;99.90;;;;;;5053591;28;20396;-76
2023/10/10 05:30:23;;;;;;;387.63;366.93;;;13.10;99.90;;;;;;5054936;28;20746;-76
2023/10/10 05:33:00;;;;;;;400.47;379.07;;;13.10;99.90;;;;;;5053363;28;20431;-76
2023/10/10 05:35:30;;;;;;;389.37;368.60;;;13.10;99.90;;;;;;5054948;28;20396;-76
2023/10/10 05:37:57;;;;;;;401.63;379.87;;;13.10;99.90;;;;;;5054614;28;20449;-76
2023/10/10 05:40:25;;;;;;;394.17;372.97;;;13.20;99.90;;;;;;5054686;28;20580;-76
2023/10/10 05:42:54;;;;;;;384.63;364.13;;;13.20;99.90;;;;;;5054267;28;20476;-76
2023/10/10 05:45:20;;;;;;;351.20;331.10;;;13.20;99.90;;;;;;5054409;28;20400;-76
2023/10/10 05:47:47;;;;;;;383.27;362.55;;;13.20;99.90;;;;;;5036413;28;20408;-76
2023/10/10 05:50:13;;;;;;;375.63;355.47;;;13.20;99.90;;;;;;5036208;28;20243;-76
2023/10/10 05:52:43;;;;;;;392.03;371.03;;;13.30;99.90;;;;;;5054146;28;20435;-76
2023/10/10 05:55:12;;;;;;;394.53;373.50;;;13.20;99.90;;;;;;5054463;28;20967;-76
2023/10/10 05:57:39;;;;;;;389.07;368.30;;;13.20;99.90;;;;;;5054993;28;20408;-76
2023/10/10 06:00:10;;;;;;;381.87;361.47;;;13.20;99.90;;;;;;5053973;28;20447;-76
2023/10/10 06:02:45;;;;;;;384.23;363.43;;;13.20;99.90;;;;;;5054235;28;20432;-76
2023/10/10 06:05:15;;;;;;;382.50;361.97;;;13.30;99.90;;;;;;5054445;28;20724;-76
2023/10/10 06:07:44;;;;;;;391.93;370.77;;;13.30;99.90;;;;;;5053983;28;20411;-76
2023/10/10 06:10:16;;;;;;;393.90;372.73;;;13.20;99.90;;;;;;5053943;28;20466;-76
2023/10/10 06:12:51;;;;;;;369.20;349.17;;;13.30;99.90;;;;;;5053856;28;20560;-76
2023/10/10 06:15:17;;;;;;;388.50;366.83;;;13.30;99.90;;;;;;5054227;28;20861;-76
2023/10/10 06:17:49;;;;;;;388.07;367.43;;;13.40;99.90;;;;;;5053982;28;20435;-76
2023/10/10 06:20:21;;;;;;;368.57;348.87;;;13.30;99.90;;;;;;5054001;28;20432;-76
2023/10/10 06:22:54;;;;;;;397.43;376.10;;;13.30;99.90;;;;;;5054262;28;20430;-76
2023/10/10 06:25:24;;;;;;;392.27;369.73;;;13.30;99.90;;;;;;5035824;28;20406;-76
2023/10/10 06:27:57;;;;;;;382.23;361.23;;;13.30;99.90;;;;;;5053695;28;20821;-76
2023/10/10 06:30:24;;;;;;;404.53;383.23;;;13.30;99.90;;;;;;5053662;28;20395;-76
2023/10/10 06:32:50;;;;;;;379.13;358.53;;;13.30;99.90;;;;;;5053512;28;20430;-76
2023/10/10 06:37:51;;;;;;;392.37;371.43;;;13.40;99.90;;;;;;5053727;28;20407;-76
2023/10/10 06:40:24;;;;;;;360.03;340.53;;;13.40;99.90;;;;;;5053359;28;20427;-76
2023/10/10 06:42:55;;;;;;;356.13;337.00;;;13.50;99.90;;;;;;5053345;28;20427;-76
2023/10/10 06:45:27;;;;;;;335.33;316.70;;;13.60;99.90;;;;;;5053611;28;20487;-76
2023/10/10 06:47:54;;;;;;;349.30;329.93;;;13.70;99.90;;;;;;5035475;28;20812;-76
2023/10/10 06:50:22;;;;;;;369.30;348.80;;;13.70;99.90;;;;;;5053562;28;20403;-76
2023/10/10 06:52:52;;;;;;;343.93;324.50;;;13.70;99.90;;;;;;5053263;28;20457;-76
2023/10/10 06:55:22;;;;;;;346.30;327.20;;;13.70;99.90;;;;;;5053120;28;20415;-76
2023/10/10 06:57:59;;;;;;;347.83;328.53;;;13.70;99.90;;;;;;5053141;28;20388;-76
2023/10/10 07:00:29;;;;;;;325.07;306.57;;;13.80;99.90;;;;;;5053609;28;20434;-76
2023/10/10 07:02:56;;;;;;;329.57;310.97;;;13.80;99.90;;;;;;5052464;28;20432;-76
2023/10/10 07:05:26;;;;;;;343.83;324.97;;;13.80;99.90;;;;;;5051942;28;20486;-76
2023/10/10 07:07:57;;;;;;;347.90;329.03;;;13.90;99.90;;;;;;5051765;28;20785;-76
2023/10/10 07:10:32;;;;;;;345.67;326.73;;;13.90;99.90;;;;;;5053002;28;20427;-76
2023/10/10 07:12:58;;;;;;;323.63;305.23;;;13.90;99.90;;;;;;5052919;28;20434;-76
2023/10/10 07:15:34;;;;;;;303.30;286.20;;;14.00;99.90;;;;;;5052916;28;20414;-76
2023/10/10 07:18:15;;;;;;;321.20;303.10;;;14.10;99.90;;;;;;5052948;28;20433;-76
2023/10/10 07:21:44;;;;;;;303.90;286.50;;;14.20;99.90;;;;;;5052906;28;20770;-76
2023/10/10 07:23:42;;;;;;;322.73;303.53;;;14.30;99.90;;;;;;5039526;28;20438;-76
2023/10/10 07:26:23;;;;;;;318.37;300.13;;;14.40;99.90;;;;;;5053116;28;20411;-76
2023/10/10 07:29:26;;;;;;;282.80;266.37;;;14.50;99.90;;;;;;5052319;28;20412;-76
2023/10/10 07:31:53;;;;;;;301.37;283.83;;;14.60;99.90;;;;;;5052577;28;20522;-76
2023/10/10 07:34:19;;;;;;;300.37;283.17;;;14.60;99.90;;;;;;5052731;28;20414;-76
2023/10/10 07:36:50;;;;;;;306.30;288.83;;;14.60;99.90;;;;;;5052922;28;20411;-76
2023/10/10 07:39:36;;;;;;;284.40;267.20;;;14.60;99.90;;;;;;5052940;28;20507;-76
2023/10/10 07:42:02;;;;;;;282.13;265.57;;;14.80;99.90;;;;;;5052986;28;20464;-76
2023/10/10 07:44:30;;;;;;;293.37;276.40;;;14.80;99.90;;;;;;5052622;28;20396;-76
2023/10/10 07:47:19;;;;;;;300.63;283.03;;;14.90;99.90;;;;;;5052910;28;20419;-76
2023/10/10 07:49:50;;;;;;;291.60;274.90;;;14.90;99.90;;;;;;5052917;28;20418;-76
2023/10/10 07:52:20;;;;;;;309.63;292.23;;;15.00;99.90;;;;;;5052828;28;20781;-76
2023/10/10 07:54:51;;;;;;;291.87;275.13;;;15.00;99.90;;;;;;5052547;28;20404;-76
2023/10/10 07:57:22;;;;;;;306.07;288.97;;;15.00;99.90;;;;;;5052867;28;20384;-76
2023/10/10 07:59:57;;;;;;;314.10;295.83;;;15.00;99.90;;;;;;5052771;28;20527;-76
2023/10/10 08:04:57;;;;;;;323.07;304.70;;;15.20;99.90;;;;;;5052589;28;20377;-76
2023/10/10 08:07:26;;;;;;;337.77;319.40;;;15.20;99.90;;;;;;5052476;28;20404;-76
2023/10/10 08:12:38;;;;;;;310.90;293.63;;;15.30;99.90;;;;;;5022104;28;20573;-76
2023/10/10 08:15:25;;;;;;;322.37;304.37;;;15.30;99.90;;;;;;5054979;28;20893;-76
2023/10/10 08:17:54;;;;;;;330.73;311.67;;;15.30;99.90;;;;;;5055818;28;20426;-76
2023/10/10 08:23:03;;;;;;;337.43;318.53;;;15.50;99.90;;;;;;5056319;28;20526;-76
2023/10/10 08:25:29;;;;;;;333.30;314.53;;;15.60;99.90;;;;;;5056290;28;20427;-76
2023/10/10 08:27:58;;;;;;;329.00;310.00;;;15.70;99.90;;;;;;5055907;28;20400;-76
2023/10/10 08:30:28;;;;;;;300.03;282.93;;;15.70;99.90;;;;;;5054725;28;20208;-76
2023/10/10 08:32:58;;;;;;;318.30;300.80;;;15.80;99.90;;;;;;5056054;28;20434;-76
2023/10/10 08:35:29;;;;;;;297.97;281.20;;;15.90;99.90;;;;;;5056141;28;20393;-76
2023/10/10 08:37:57;;;;;;;314.97;296.97;;;16.00;99.90;;;;;;5055792;28;20392;-76
2023/10/10 08:40:30;;;;;;;315.00;297.40;;;16.20;99.90;;;;;;5055595;28;20447;-76
2023/10/10 08:42:56;;;;;;;296.90;279.70;;;16.30;99.90;;;;;;5055840;28;20427;-76
2023/10/10 08:45:24;;;;;;;269.40;253.50;;;16.40;99.90;;;;;;5054304;28;20909;-76
2023/10/10 08:48:00;;;;;;;287.47;271.17;;;16.40;99.90;;;;;;5055523;28;20461;-76
2023/10/10 08:50:33;;;;;;;303.17;286.23;;;16.50;99.90;;;;;;5055468;28;20908;-76
2023/10/10 08:53:00;;;;;;;272.97;256.47;;;16.60;99.90;;;;;;5055388;28;20518;-76
2023/10/10 08:55:26;;;;;;;277.77;261.70;;;16.60;99.90;;;;;;5055654;28;20765;-76
2023/10/10 08:57:53;;;;;;;292.30;275.40;;;16.70;99.90;;;;;;5055627;28;20403;-76
2023/10/10 09:00:18;;;;;;;307.23;289.97;;;16.80;99.90;;;;;;5055502;28;20493;-76
2023/10/10 09:02:45;;;;;;;266.03;249.67;;;16.90;99.90;;;;;;5055186;28;20462;-76
2023/10/10 09:05:14;;;;;;;256.87;240.80;;;17.00;99.90;;;;;;5053935;28;20220;-76
2023/10/10 09:07:43;;;;;;;263.50;247.53;;;17.20;99.90;;;;;;5055118;28;20905;-76
2023/10/10 09:10:15;;;;;;;261.97;245.90;;;17.30;99.90;;;;;;5053686;28;20443;-76
2023/10/10 09:12:56;;;;;;;252.43;237.37;;;17.30;99.90;;;;;;5055294;28;20843;-76
2023/10/10 09:15:25;;;;;;;288.27;271.20;;;17.50;99.90;;;;;;5055302;28;20445;-76
2023/10/10 09:17:58;;;;;;;243.40;228.90;;;17.60;99.90;;;;;;5055178;28;20419;-76
2023/10/10 09:20:32;;;;;;;252.70;237.57;;;17.80;99.90;;;;;;5054908;28;20546;-76
2023/10/10 09:23:11;;;;;;;246.30;231.50;;;17.90;99.90;;;;;;5054960;28;20428;-76
2023/10/10 09:25:48;;;;;;;263.90;248.73;;;18.00;99.90;;;;;;5054261;28;20380;-76
2023/10/10 09:28:16;;;;;;;240.17;225.10;;;18.00;99.90;;;;;;5055055;28;20384;-76
2023/10/10 09:31:12;;;;;;;240.17;225.67;;;18.10;99.90;;;;;;5054651;28;20415;-76
2023/10/10 09:33:45;;;;;;;259.03;243.23;;;18.20;99.90;;;;;;5054683;28;20434;-76
2023/10/10 09:36:19;;;;;;;272.97;257.37;;;18.30;99.90;;;;;;5055285;28;20394;-76
2023/10/10 09:38:57;;;;;;;264.53;248.70;;;18.40;99.90;;;;;;5054844;28;20385;-76
2023/10/10 09:49:43;;;;;;;280.87;265.17;;;18.80;96.00;;;;;;5054767;28;20422;-76
2023/10/10 09:55:48;;;;;;;321.67;303.97;;;19.10;81.60;;;;;;5054466;28;20409;-76
2023/10/10 10:06:03;;;;;;;324.03;307.07;;;19.40;41.80;;;;;;5054400;28;20383;-76
2023/10/10 10:08:47;;;;;;;304.50;287.87;;;19.50;41.30;;;;;;5054142;28;20410;-77
2023/10/10 10:11:35;;;;;;;310.70;293.73;;;19.70;43.20;;;;;;5054245;28;20424;-77
2023/10/10 10:14:35;;;;;;;306.53;290.23;;;19.80;26.10;;;;;;5036074;28;20411;-76
2023/10/10 10:17:45;;;;;;;307.60;290.60;;;19.90;28.60;;;;;;5026138;28;20419;-76
2023/10/10 10:20:21;;;;;;;292.83;277.03;;;19.90;32.20;;;;;;5052400;28;20493;-76
2023/10/10 10:22:59;;;;;;;284.47;268.97;;;20.00;16.40;;;;;;5053706;28;20525;-76
2023/10/10 10:25:37;;;;;;;273.13;257.93;;;20.00;15.20;;;;;;5054051;28;20468;-76
2023/10/10 10:28:14;;;;;;;288.73;272.70;;;20.10;9.90;;;;;;5052428;28;20391;-76
2023/10/10 10:30:47;;;;;;;254.43;240.07;;;20.30;10.50;;;;;;5053587;28;20391;-76
2023/10/10 10:33:13;;;;;;;265.13;250.13;;;20.50;1.00;;;;;;5053836;28;20778;-76
2023/10/10 10:35:56;;;;;;;253.83;239.17;;;20.50;1.00;;;;;;5053557;28;20407;-76
2023/10/10 10:38:31;;;;;;;267.00;251.73;;;20.60;1.00;;;;;;5053419;28;20845;-76
2023/10/10 10:41:15;;;;;;;263.77;248.57;;;20.60;1.00;;;;;;5052138;28;20441;-76
2023/10/10 10:43:51;;;;;;;261.77;247.20;;;20.70;1.00;;;;;;5053351;28;20430;-76
2023/10/10 10:46:27;;;;;;;245.60;230.43;;;20.80;1.00;;;;;;5052075;28;20400;-76
2023/10/10 10:49:02;;;;;;;228.67;214.97;;;21.00;1.00;;;;;;5053342;28;20392;-76
2023/10/10 10:51:43;;;;;;;251.83;237.70;;;21.10;1.00;;;;;;5053301;28;20730;-77
2023/10/10 10:54:09;;;;;;;250.63;236.10;;;21.20;1.00;;;;;;5053231;28;20419;-76
2023/10/10 10:59:19;;;;;;;240.10;225.80;;;21.40;1.00;;;;;;5053387;28;20455;-76
2023/10/10 11:01:55;;;;;;;219.87;207.13;;;21.60;1.00;;;;;;5053079;28;20169;-76
2023/10/10 11:04:43;;;;;;;215.83;202.70;;;21.80;1.00;;;;;;5052179;28;20408;-77
2023/10/10 11:07:15;;;;;;;254.30;240.17;;;21.80;1.00;;;;;;5053260;28;20399;-76
2023/10/10 11:09:52;;;;;;;239.60;225.90;;;22.00;1.00;;;;;;5053058;28;20501;-77
2023/10/10 11:12:21;;;;;;;236.53;222.83;;;21.90;1.00;;;;;;5053230;28;20459;-77
2023/10/10 11:14:49;;;;;;;217.20;204.07;;;21.90;1.00;;;;;;5051668;28;20781;-76
2023/10/10 11:17:18;;;;;;;219.00;206.23;;;21.80;1.00;;;;;;5053129;28;20931;-76
2023/10/10 11:19:48;;;;;;;217.73;204.90;;;22.00;1.00;;;;;;5052850;28;20816;-76
2023/10/10 11:23:06;;;;;;;232.17;218.77;;;22.00;1.00;;;;;;5053093;28;20821;-76
2023/10/10 11:25:04;;;;;;;222.17;209.13;;;22.20;1.00;;;;;;5044582;28;20415;-76
2023/10/10 11:27:43;;;;;;;225.53;212.57;;;22.20;1.00;;;;;;5052810;28;20451;-77
2023/10/10 11:30:19;;;;;;;226.33;212.63;;;22.30;1.00;;;;;;5052829;28;20423;-77
2023/10/10 11:32:47;;;;;;;208.97;196.33;;;22.50;1.00;;;;;;5052801;28;20431;-77
2023/10/10 11:35:26;;;;;;;209.97;197.47;;;22.50;1.00;;;;;;5052801;28;20897;-76
2023/10/10 11:38:09;;;;;;;220.23;206.73;;;22.70;1.00;;;;;;5052748;28;20388;-77
2023/10/10 11:40:38;;;;;;;219.47;206.80;;;22.80;1.00;;;;;;5052969;28;20458;-77
2023/10/10 11:43:06;;;;;;;203.13;190.93;;;23.00;1.00;;;;;;5052617;28;20529;-77
2023/10/10 11:45:39;;;;;;;208.87;195.37;;;23.00;1.00;;;;;;5052680;28;20396;-77
2023/10/10 11:48:12;;;;;;;215.77;203.07;;;22.90;1.00;;;;;;5054489;28;20395;-77
2023/10/10 11:50:43;;;;;;;206.20;193.97;;;23.00;1.00;;;;;;5056934;28;20388;-77
2023/10/10 11:53:19;;;;;;;195.50;183.80;;;23.00;1.00;;;;;;5056550;28;20431;-77
2023/10/10 11:55:45;;;;;;;207.13;195.20;;;23.00;1.00;;;;;;5055351;28;20403;-77
2023/10/10 11:58:20;;;;;;;190.97;179.37;;;23.10;1.00;;;;;;5038915;28;20418;-76
2023/10/10 12:00:59;;;;;;;211.90;199.00;;;23.10;1.00;;;;;;5056708;28;20462;-77
2023/10/10 12:06:19;;;;;;;208.27;194.87;;;23.20;1.00;;;;;;5056698;28;20895;-76
2023/10/10 12:08:50;;;;;;;216.30;203.10;;;23.20;1.00;;;;;;5056645;28;20576;-77
2023/10/10 12:11:19;;;;;;;195.07;183.43;;;23.20;1.00;;;;;;5056270;28;20388;-76
2023/10/10 12:13:46;;;;;;;163.80;152.90;;;23.40;1.00;;;;;;5056397;28;20427;-77
2023/10/10 12:16:11;;;;;;;173.63;162.93;;;23.60;1.00;;;;;;5056187;28;20772;-76
2023/10/10 12:18:59;;;;;;;179.87;168.97;;;23.50;1.00;;;;;;5056078;28;20408;-77
2023/10/10 12:21:25;;;;;;;163.57;152.93;;;23.50;1.00;;;;;;5056103;28;20313;-76
2023/10/10 12:23:57;;;;;;;160.93;150.87;;;23.60;1.00;;;;;;5056197;28;20471;-76
2023/10/10 12:26:23;;;;;;;168.57;157.73;;;23.40;1.00;;;;;;5056584;28;20419;-77
2023/10/10 12:28:52;;;;;;;198.70;186.90;;;23.20;1.00;;;;;;5055950;28;20411;-76
2023/10/10 12:31:21;;;;;;;185.23;173.87;;;23.10;1.00;;;;;;5056177;28;20407;-76
2023/10/10 12:33:53;;;;;;;170.80;160.20;;;23.00;1.00;;;;;;5055787;28;20458;-76
2023/10/10 12:36:22;;;;;;;164.90;153.80;;;23.30;1.00;;;;;;5056130;28;20418;-77
2023/10/10 12:38:48;;;;;;;143.03;133.73;;;23.60;1.00;;;;;;5055793;28;20411;-77
2023/10/10 12:41:20;;;;;;;141.07;131.83;;;23.80;1.00;;;;;;5055752;28;20498;-76
2023/10/10 12:43:46;;;;;;;151.27;141.70;;;24.00;1.00;;;;;;5055653;28;20423;-77
2023/10/10 12:46:16;;;;;;;158.63;148.77;;;24.20;1.00;;;;;;5055628;28;20820;-76
2023/10/10 12:48:46;;;;;;;149.47;140.07;;;24.20;1.00;;;;;;5055769;28;20392;-77
2023/10/10 12:51:12;;;;;;;149.60;140.00;;;24.20;1.00;;;;;;5055758;28;20400;-77
2023/10/10 12:53:39;;;;;;;141.57;132.43;;;24.20;1.00;;;;;;5037582;28;20432;-77
2023/10/10 12:56:16;;;;;;;151.03;140.93;;;24.40;1.00;;;;;;5055414;28;20404;-77
2023/10/10 12:58:51;;;;;;;162.53;152.60;;;24.50;1.00;;;;;;5055350;28;20406;-77
2023/10/10 13:01:23;;;;;;;142.83;133.77;;;24.50;1.00;;;;;;5054867;28;20392;-77
2023/10/10 13:03:49;;;;;;;131.57;122.87;;;24.40;1.00;;;;;;5055294;28;20928;-77
2023/10/10 13:06:16;;;;;;;102.57;94.93;;;24.40;1.00;;;;;;5055282;28;20903;-77
2023/10/10 13:11:30;;;;;;;87.23;80.73;;;24.40;1.00;;;;;;5055502;28;20387;-77
2023/10/10 13:13:56;;;;;;;64.43;58.73;;;24.40;1.00;;;;;;5055405;28;20383;-77
2023/10/10 13:18:55;;;;;;;71.70;65.20;;;24.30;1.00;;;;;;5054944;28;20770;-77
2023/10/10 13:21:21;;;;;;;86.43;79.93;;;24.30;1.00;;;;;;5056309;28;20404;-77
2023/10/10 13:23:51;;;;;;;85.03;78.47;;;24.20;1.00;;;;;;5053651;28;20529;-77
2023/10/10 13:26:17;;;;;;;102.60;95.17;;;24.20;1.00;;;;;;5055242;28;20800;-77
2023/10/10 13:28:46;;;;;;;70.73;64.33;;;24.20;1.00;;;;;;5054871;28;20414;-77
2023/10/10 13:31:29;;;;;;;93.27;86.07;;;24.20;1.00;;;;;;5055088;28;20404;-77
2023/10/10 13:33:56;;;;;;;77.50;70.97;;;24.20;1.00;;;;;;5054703;28;20423;-77
2023/10/10 13:36:21;;;;;;;75.03;68.60;;;24.20;1.00;;;;;;5054792;28;20760;-77
2023/10/10 13:38:50;;;;;;;71.10;65.10;;;24.10;1.00;;;;;;5054588;28;20486;-77
2023/10/10 13:41:18;;;;;;;72.13;66.17;;;24.10;1.00;;;;;;5036748;28;20161;-77
2023/10/10 13:43:47;;;;;;;67.70;61.90;;;24.10;1.00;;;;;;5054535;28;20557;-76
2023/10/10 13:46:18;;;;;;;72.27;66.07;;;24.10;1.00;;;;;;5054778;28;20392;-77
2023/10/10 13:48:45;;;;;;;79.30;72.73;;;24.00;1.00;;;;;;5055076;28;20400;-77
2023/10/10 13:51:13;;;;;;;81.70;74.97;;;24.00;1.00;;;;;;5054385;28;20400;-77
2023/10/10 13:53:40;;;;;;;63.80;57.17;;;24.10;1.00;;;;;;5054350;28;20415;-76
2023/10/10 13:56:07;;;;;;;90.27;83.40;;;24.00;1.00;;;;;;5054657;28;20410;-77
2023/10/10 13:58:34;;;;;;;72.37;66.07;;;24.10;1.00;;;;;;5054336;28;20917;-77
2023/10/10 14:03:57;;;;;;;94.90;88.03;;;24.10;1.00;;;;;;5054381;28;20481;-77
2023/10/10 14:06:27;;;;;;;87.70;80.50;;;24.00;1.00;;;;;;5054287;28;20480;-76
2023/10/10 14:08:53;;;;;;;99.23;91.90;;;24.00;1.00;;;;;;5054560;28;20419;-77
2023/10/10 14:11:22;;;;;;;72.13;66.17;;;24.00;1.00;;;;;;5054952;28;20385;-77
2023/10/10 14:13:53;;;;;;;82.40;75.80;;;24.00;1.00;;;;;;5053986;28;20856;-77
2023/10/10 14:16:20;;;;;;;101.17;94.10;;;24.00;1.00;;;;;;5054191;28;20384;-77
2023/10/10 14:18:52;;;;;;;83.33;76.43;;;24.00;1.00;;;;;;5054137;28;20822;-77
2023/10/10 14:26:14;;;;;;;71.00;64.87;;;24.00;1.00;;;;;;5072540;28;20454;-77
2023/10/10 14:28:52;;;;;;;68.00;61.90;;;24.00;1.00;;;;;;5073728;28;20410;-77
2023/10/10 14:31:27;;;;;;;64.60;58.70;;;24.00;1.00;;;;;;5055853;28;20211;-77
2023/10/10 14:33:54;;;;;;;69.90;63.80;;;24.00;1.00;;;;;;5073483;28;20410;-77
2023/10/10 14:36:20;;;;;;;60.57;54.73;;;24.00;1.00;;;;;;5073513;28;20473;-77
2023/10/10 14:38:50;;;;;;;71.93;65.77;;;24.10;1.00;;;;;;5073707;28;20387;-77
2023/10/10 14:41:22;;;;;;;64.00;58.27;;;24.10;1.00;;;;;;5073414;28;20975;-77
2023/10/10 14:43:54;;;;;;;77.30;70.87;;;24.20;1.00;;;;;;5073562;28;20426;-77
2023/10/10 14:46:34;;;;;;;65.80;60.00;;;24.20;1.00;;;;;;5073429;28;20387;-76
2023/10/10 14:49:05;;;;;;;65.00;59.10;;;24.30;1.00;;;;;;5073470;28;20432;-77
2023/10/10 14:51:36;;;;;;;59.60;54.03;;;24.40;1.00;;;;;;5073586;28;20383;-77
2023/10/10 14:54:12;;;;;;;55.37;49.47;;;24.50;1.00;;;;;;5073508;28;20393;-77
2023/10/10 14:56:50;;;;;;;62.70;57.03;;;24.50;1.00;;;;;;5073770;28;20375;-77
2023/10/10 14:59:18;;;;;;;62.40;56.50;;;24.50;1.00;;;;;;5073427;28;20761;-76
2023/10/10 15:01:47;;;;;;;64.63;59.07;;;24.60;1.00;;;;;;5073480;28;20900;-77
2023/10/10 15:04:17;;;;;;;65.07;59.23;;;24.60;1.00;;;;;;5056428;28;20773;-76
2023/10/10 15:06:44;;;;;;;68.87;62.63;;;24.60;1.00;;;;;;5073466;28;20418;-77
2023/10/10 15:09:13;;;;;;;64.93;59.23;;;24.60;1.00;;;;;;5073236;28;20409;-76
2023/10/10 15:11:43;;;;;;;66.50;60.70;;;24.60;1.00;;;;;;5055212;28;20505;-76
2023/10/10 15:14:09;;;;;;;60.63;55.07;;;24.60;1.00;;;;;;5073564;28;20493;-76
2023/10/10 15:16:36;;;;;;;69.83;63.93;;;24.60;1.00;;;;;;5073628;28;20410;-77
2023/10/10 15:19:07;;;;;;;70.47;64.07;;;24.60;1.00;;;;;;5073149;28;20403;-77
2023/10/10 15:21:36;;;;;;;68.37;62.67;;;24.60;1.00;;;;;;5073785;28;20402;-76
2023/10/10 15:24:03;;;;;;;65.20;59.40;;;24.60;1.00;;;;;;5054430;28;20498;-76
2023/10/10 15:26:30;;;;;;;76.00;70.00;;;24.50;1.00;;;;;;5055098;28;20445;-76
2023/10/10 15:28:56;;;;;;;67.87;62.17;;;24.40;1.00;;;;;;5072977;28;20766;-76
2023/10/10 15:31:29;;;;;;;77.77;70.23;;;24.30;1.00;;;;;;5073274;28;20457;-77
2023/10/10 15:33:57;;;;;;;70.57;64.20;;;24.30;1.00;;;;;;5073387;28;20508;-76
2023/10/10 15:36:32;;;;;;;82.43;76.03;;;24.30;1.00;;;;;;5073179;28;20383;-76
2023/10/10 15:39:05;;;;;;;78.43;72.13;;;24.20;1.00;;;;;;5074030;28;20386;-77